createdAt,value
2019-05-29T00:00:30.164Z,71.24
2019-05-29T00:02:59.603Z,71.29
2019-05-29T00:05:29.131Z,69.67
2019-05-29T00:07:58.555Z,70.35
2019-05-29T00:10:28.036Z,70.98
2019-05-29T00:12:57.503Z,69.94
2019-05-29T00:15:27.015Z,70.47
2019-05-29T00:17:56.571Z,69.77
2019-05-29T00:20:26.033Z,69.80
2019-05-29T00:22:55.464Z,69.78
2019-05-29T00:25:24.911Z,69.49
2019-05-29T00:27:54.575Z,69.67
2019-05-29T00:30:24.012Z,69.28
2019-05-29T00:32:53.426Z,70.20
2019-05-29T00:35:22.858Z,70.14
2019-05-29T00:37:52.325Z,70.26
2019-05-29T00:40:21.959Z,69.49
2019-05-29T00:42:51.427Z,70.36
2019-05-29T00:45:21.553Z,69.90
2019-05-29T00:47:50.887Z,71.11
2019-05-29T00:50:20.466Z,70.90
2019-05-29T00:52:49.870Z,71.21
2019-05-29T00:55:19.290Z,71.51
2019-05-29T00:57:48.727Z,71.53
2019-05-29T01:00:19.481Z,71.71
2019-05-29T01:02:48.955Z,71.79
2019-05-29T01:05:18.626Z,71.96
2019-05-29T01:07:48.018Z,72.36
2019-05-29T01:10:19.160Z,72.20
2019-05-29T01:12:48.607Z,71.98
2019-05-29T01:15:19.537Z,71.15
2019-05-29T01:17:49.056Z,71.26
2019-05-29T01:20:19.911Z,71.37
2019-05-29T01:22:49.304Z,71.24
2019-05-29T01:25:18.885Z,71.60
2019-05-29T01:27:48.288Z,71.08
2019-05-29T01:30:17.783Z,71.16
2019-05-29T01:32:47.253Z,71.88
2019-05-29T01:35:17.829Z,71.43
2019-05-29T01:37:47.352Z,71.34
2019-05-29T01:40:21.951Z,70.91
2019-05-29T01:42:49.995Z,71.40
2019-05-29T01:45:20.019Z,71.52
2019-05-29T01:47:49.430Z,71.98
2019-05-29T01:50:19.623Z,72.05
2019-05-29T01:52:49.386Z,72.33
2019-05-29T01:55:19.791Z,72.26
2019-05-29T01:57:49.595Z,72.74
2019-05-29T02:00:20.122Z,73.03
2019-05-29T02:02:49.590Z,73.10
2019-05-29T02:05:19.970Z,73.41
2019-05-29T02:07:49.785Z,72.27
2019-05-29T02:10:20.270Z,72.80
2019-05-29T02:12:49.735Z,72.37
2019-05-29T02:15:25.990Z,72.57
2019-05-29T02:17:50.549Z,72.17
2019-05-29T02:20:21.132Z,72.67
2019-05-29T02:22:50.718Z,73.19
2019-05-29T02:25:22.605Z,73.01
2019-05-29T02:27:52.083Z,72.33
2019-05-29T02:30:23.514Z,72.14
2019-05-29T02:32:52.992Z,72.55
2019-05-29T02:35:24.192Z,72.74
2019-05-29T02:37:53.738Z,72.69
2019-05-29T02:40:25.621Z,72.47
2019-05-29T02:42:54.482Z,72.95
2019-05-29T02:45:37.352Z,72.66
2019-05-29T02:47:55.038Z,72.76
2019-05-29T02:50:26.190Z,72.54
2019-05-29T02:52:55.510Z,72.56
2019-05-29T02:55:26.722Z,72.39
2019-05-29T02:57:56.280Z,72.21
2019-05-29T03:00:48.991Z,73.26
2019-05-29T03:03:19.331Z,73.23
2019-05-29T03:05:48.752Z,72.66
2019-05-29T03:08:18.272Z,72.89
2019-05-29T03:10:47.754Z,72.82
2019-05-29T03:13:17.920Z,73.11
2019-05-29T03:15:47.469Z,73.41
2019-05-29T03:18:16.991Z,72.22
2019-05-29T03:20:46.667Z,73.10
2019-05-29T03:23:16.248Z,73.27
2019-05-29T03:25:45.730Z,73.02
2019-05-29T03:28:15.268Z,73.23
2019-05-29T03:30:46.056Z,72.57
2019-05-29T03:33:16.088Z,72.98
2019-05-29T03:35:47.821Z,72.43
2019-05-29T03:38:17.105Z,73.04
2019-05-29T03:40:46.602Z,73.27
2019-05-29T03:43:16.111Z,72.45
2019-05-29T03:45:45.770Z,73.28
2019-05-29T03:48:15.301Z,73.11
2019-05-29T03:50:44.766Z,73.28
2019-05-29T03:53:14.332Z,72.87
2019-05-29T03:55:43.889Z,72.57
2019-05-29T03:58:13.443Z,72.32
2019-05-29T04:00:46.348Z,72.29
2019-05-29T04:03:14.082Z,73.05
2019-05-29T04:05:43.501Z,72.91
2019-05-29T04:08:12.875Z,73.14
2019-05-29T04:10:42.341Z,72.91
2019-05-29T04:13:11.792Z,73.14
2019-05-29T04:15:42.832Z,73.10
2019-05-29T04:18:12.225Z,72.41
2019-05-29T04:20:42.306Z,73.03
2019-05-29T04:23:11.825Z,72.59
2019-05-29T04:25:42.996Z,72.47
2019-05-29T04:28:12.873Z,72.89
2019-05-29T04:30:42.468Z,72.77
2019-05-29T04:33:12.004Z,73.15
2019-05-29T04:35:41.635Z,73.47
2019-05-29T04:38:11.079Z,73.56
2019-05-29T04:40:40.994Z,72.25
2019-05-29T04:43:10.463Z,72.44
2019-05-29T04:45:40.312Z,73.35
2019-05-29T04:48:09.794Z,72.45
2019-05-29T04:50:40.582Z,73.29
2019-05-29T04:53:10.674Z,73.18
2019-05-29T04:55:40.168Z,73.86
2019-05-29T04:58:09.779Z,73.76
2019-05-29T05:00:39.495Z,72.88
2019-05-29T05:03:08.948Z,73.24
2019-05-29T05:05:39.541Z,72.10
2019-05-29T05:08:09.097Z,72.06
2019-05-29T05:10:40.996Z,72.83
2019-05-29T05:13:11.029Z,72.61
2019-05-29T05:15:40.441Z,72.55
2019-05-29T05:18:09.940Z,71.84
2019-05-29T05:20:40.408Z,71.15
2019-05-29T05:23:10.014Z,71.58
2019-05-29T05:25:40.863Z,70.98
2019-05-29T05:28:10.567Z,71.15
2019-05-29T05:30:40.802Z,69.14
2019-05-29T05:33:10.417Z,69.14
2019-05-29T05:35:41.042Z,68.78
2019-05-29T05:38:10.583Z,68.28
2019-05-29T05:40:42.937Z,68.17
2019-05-29T05:43:23.225Z,67.94
2019-05-29T05:45:42.533Z,67.90
2019-05-29T05:48:12.034Z,67.35
2019-05-29T05:50:41.621Z,67.20
2019-05-29T05:53:11.193Z,68.36
2019-05-29T05:55:41.845Z,68.21
2019-05-29T05:58:11.389Z,67.71
2019-05-29T06:00:42.058Z,68.31
2019-05-29T06:03:11.705Z,67.32
2019-05-29T06:05:42.322Z,67.55
2019-05-29T06:08:11.810Z,67.70
2019-05-29T06:10:42.435Z,67.54
2019-05-29T06:13:12.046Z,70.71
2019-05-29T06:15:42.813Z,70.71
2019-05-29T06:18:21.011Z,68.29
2019-05-29T06:20:43.796Z,71.42
2019-05-29T06:23:13.335Z,69.80
2019-05-29T06:25:43.844Z,69.66
2019-05-29T06:28:13.527Z,69.96
2019-05-29T06:30:44.922Z,69.96
2019-05-29T06:33:14.474Z,70.01
2019-05-29T06:35:44.243Z,72.80
2019-05-29T06:38:13.757Z,72.80
2019-05-29T06:40:44.163Z,70.89
2019-05-29T06:43:24.705Z,69.76
2019-05-29T06:45:54.919Z,70.21
2019-05-29T06:48:57.571Z,69.09
2019-05-29T06:50:59.897Z,69.74
2019-05-29T06:53:29.613Z,71.30
2019-05-29T06:56:01.080Z,70.06
2019-05-29T06:58:30.496Z,68.07
2019-05-29T07:01:00.006Z,67.41
2019-05-29T07:03:29.587Z,67.41
2019-05-29T07:05:59.122Z,65.56
2019-05-29T07:08:39.072Z,65.56
2019-05-29T07:11:00.086Z,65.14
2019-05-29T07:13:34.520Z,65.01
2019-05-29T07:16:01.653Z,64.45
2019-05-29T07:18:31.109Z,64.97
2019-05-29T07:21:00.711Z,62.10
2019-05-29T07:23:30.240Z,60.27
2019-05-29T07:25:59.698Z,58.27
2019-05-29T07:28:29.189Z,59.79
2019-05-29T07:31:02.525Z,58.40
2019-05-29T07:33:29.903Z,59.29
2019-05-29T07:35:59.674Z,57.31
2019-05-29T07:38:29.244Z,56.09
2019-05-29T07:40:58.798Z,56.58
2019-05-29T07:43:28.412Z,55.04
2019-05-29T07:45:58.062Z,53.81
2019-05-29T07:48:27.533Z,51.94
2019-05-29T07:51:06.597Z,51.35
2019-05-29T07:53:28.194Z,50.16
2019-05-29T07:55:57.668Z,49.46
2019-05-29T07:58:27.130Z,46.58
2019-05-29T08:01:13.262Z,47.08
2019-05-29T08:03:39.214Z,48.58
2019-05-29T08:06:08.966Z,45.43
2019-05-29T08:08:39.147Z,44.45
2019-05-29T08:11:08.707Z,42.59
2019-05-29T08:13:39.376Z,44.51
2019-05-29T08:16:09.041Z,46.73
2019-05-29T08:18:41.106Z,48.67
2019-05-29T08:21:09.665Z,51.32
2019-05-29T08:23:40.210Z,52.43
2019-05-29T08:26:09.765Z,53.15
2019-05-29T08:28:40.426Z,52.65
2019-05-29T08:31:09.954Z,49.54
2019-05-29T08:33:40.711Z,44.86
2019-05-29T08:36:10.312Z,45.70
2019-05-29T08:38:42.553Z,45.77
2019-05-29T08:41:11.049Z,46.52
2019-05-29T08:43:42.532Z,47.30
2019-05-29T08:46:12.002Z,48.89
2019-05-29T08:48:41.829Z,46.82
2019-05-29T08:51:11.369Z,48.21
2019-05-29T08:53:42.514Z,47.09
2019-05-29T08:56:12.465Z,44.08
2019-05-29T08:58:42.902Z,44.54
2019-05-29T09:01:12.516Z,44.39
2019-05-29T09:03:42.757Z,43.58
2019-05-29T09:06:13.756Z,41.74
2019-05-29T09:08:43.995Z,42.19
2019-05-29T09:11:14.733Z,45.89
2019-05-29T09:13:44.268Z,48.51
2019-05-29T09:16:13.719Z,48.55
2019-05-29T09:18:43.227Z,49.99
2019-05-29T09:21:14.561Z,50.15
2019-05-29T09:23:43.955Z,48.53
2019-05-29T09:26:17.676Z,51.39
2019-05-29T09:28:44.695Z,51.93
2019-05-29T09:31:15.557Z,52.71
2019-05-29T09:33:45.494Z,53.50
2019-05-29T09:36:15.759Z,53.85
2019-05-29T09:38:46.408Z,54.82
2019-05-29T09:41:17.292Z,55.92
2019-05-29T09:43:58.133Z,54.94
2019-05-29T09:46:18.807Z,57.47
2019-05-29T09:48:50.285Z,58.03
2019-05-29T09:51:21.457Z,59.49
2019-05-29T09:53:54.355Z,60.22
2019-05-29T09:56:24.716Z,59.74
2019-05-29T09:58:55.691Z,59.72
2019-05-29T10:01:25.890Z,59.52
2019-05-29T10:03:57.527Z,59.02
2019-05-29T10:06:27.003Z,57.47
2019-05-29T10:08:57.879Z,57.67
2019-05-29T10:11:27.507Z,56.17
2019-05-29T10:13:58.666Z,56.58
2019-05-29T10:16:28.243Z,56.34
2019-05-29T10:18:59.765Z,55.39
2019-05-29T10:21:40.053Z,54.21
2019-05-29T10:24:01.823Z,53.67
2019-05-29T10:26:31.684Z,51.89
2019-05-29T10:29:08.193Z,47.87
2019-05-29T10:31:32.253Z,48.09
2019-05-29T10:34:01.790Z,48.51
2019-05-29T10:36:31.277Z,48.83
2019-05-29T10:39:00.698Z,47.10
2019-05-29T10:41:30.431Z,47.54
2019-05-29T10:43:59.978Z,45.96
2019-05-29T10:46:29.493Z,46.48
2019-05-29T10:48:59.022Z,47.32
2019-05-29T10:51:28.565Z,48.20
2019-05-29T10:53:59.235Z,50.41
2019-05-29T10:56:28.901Z,47.26
2019-05-29T10:59:00.083Z,48.17
2019-05-29T11:01:29.423Z,50.26
2019-05-29T11:03:58.866Z,48.02
2019-05-29T11:06:28.322Z,46.60
2019-05-29T11:08:57.808Z,46.74
2019-05-29T11:11:27.327Z,44.70
2019-05-29T11:13:57.176Z,43.44
2019-05-29T11:16:26.527Z,47.16
2019-05-29T11:18:55.919Z,47.36
2019-05-29T11:21:25.331Z,49.40
2019-05-29T11:23:55.921Z,48.36
2019-05-29T11:26:25.578Z,49.90
2019-05-29T11:28:55.039Z,49.90
2019-05-29T11:31:24.494Z,50.14
2019-05-29T11:33:54.986Z,49.25
2019-05-29T11:36:24.522Z,49.24
2019-05-29T11:38:54.601Z,49.21
2019-05-29T11:41:26.599Z,48.30
2019-05-29T11:43:55.314Z,46.12
2019-05-29T11:46:24.757Z,44.10
2019-05-29T11:48:55.284Z,42.35
2019-05-29T11:51:24.792Z,40.79
2019-05-29T11:53:55.327Z,39.83
2019-05-29T11:56:24.820Z,36.30
2019-05-29T11:58:54.811Z,36.42
2019-05-29T12:01:24.462Z,35.45
2019-05-29T12:04:24.317Z,35.76
2019-05-29T12:06:25.085Z,36.77
2019-05-29T12:08:55.782Z,37.71
2019-05-29T12:11:25.372Z,38.52
2019-05-29T12:13:56.131Z,40.31
2019-05-29T12:16:25.753Z,40.17
2019-05-29T12:18:55.667Z,43.56
2019-05-29T12:21:25.145Z,45.88
2019-05-29T12:23:54.596Z,48.31
2019-05-29T12:26:24.007Z,48.22
2019-05-29T12:28:56.887Z,49.88
2019-05-29T12:31:24.928Z,48.41
2019-05-29T12:33:55.013Z,48.35
2019-05-29T12:36:24.528Z,48.93
2019-05-29T12:38:55.134Z,48.26
2019-05-29T12:41:24.686Z,46.76
2019-05-29T12:43:55.279Z,45.52
2019-05-29T12:46:24.897Z,45.19
2019-05-29T12:48:55.354Z,43.99
2019-05-29T12:51:24.756Z,45.36
2019-05-29T12:53:54.171Z,43.93
2019-05-29T12:56:23.802Z,42.29
2019-05-29T12:58:54.123Z,39.69
2019-05-29T13:01:23.706Z,40.92
2019-05-29T13:03:54.204Z,41.42
2019-05-29T13:06:23.655Z,39.22
2019-05-29T13:08:54.589Z,36.92
2019-05-29T13:11:24.152Z,35.88
2019-05-29T13:13:54.342Z,36.39
2019-05-29T13:16:23.880Z,35.33
2019-05-29T13:18:54.722Z,31.35
2019-05-29T13:21:24.301Z,30.08
2019-05-29T13:23:53.764Z,30.18
2019-05-29T13:26:23.421Z,32.14
2019-05-29T13:28:52.801Z,33.24
2019-05-29T13:31:22.235Z,34.46
2019-05-29T13:33:51.748Z,34.70
2019-05-29T13:36:21.261Z,32.23
2019-05-29T13:38:50.700Z,33.82
2019-05-29T13:41:20.269Z,35.22
2019-05-29T13:43:49.831Z,34.22
2019-05-29T13:46:19.333Z,35.96
2019-05-29T13:48:48.746Z,36.68
2019-05-29T13:51:18.403Z,37.99
2019-05-29T13:54:02.079Z,36.82
2019-05-29T13:56:19.082Z,37.15
2019-05-29T13:58:48.600Z,35.55
2019-05-29T14:01:18.073Z,33.18
2019-05-29T14:03:51.791Z,31.60
2019-05-29T14:06:21.358Z,29.77
2019-05-29T14:08:50.869Z,27.70
2019-05-29T14:11:20.673Z,27.72
2019-05-29T14:13:50.278Z,26.63
2019-05-29T14:16:19.793Z,28.96
2019-05-29T14:18:49.283Z,35.58
2019-05-29T14:21:18.814Z,38.41
2019-05-29T14:23:48.354Z,41.44
2019-05-29T14:26:17.878Z,42.47
2019-05-29T14:28:47.320Z,43.31
2019-05-29T14:31:16.778Z,44.39
2019-05-29T14:33:46.673Z,44.55
2019-05-29T14:36:16.153Z,43.83
2019-05-29T14:38:45.752Z,43.44
2019-05-29T14:41:15.677Z,43.41
2019-05-29T14:43:46.342Z,42.44
2019-05-29T14:46:16.261Z,43.03
2019-05-29T14:48:46.084Z,42.76
2019-05-29T14:51:15.576Z,45.07
2019-05-29T14:53:45.060Z,46.45
2019-05-29T14:56:14.544Z,45.03
2019-05-29T14:58:43.990Z,44.83
2019-05-29T15:01:13.440Z,45.80
2019-05-29T15:03:42.945Z,45.34
2019-05-29T15:06:15.232Z,44.48
2019-05-29T15:08:44.958Z,43.72
2019-05-29T15:11:14.430Z,43.43
2019-05-29T15:13:43.874Z,43.33
2019-05-29T15:16:14.795Z,37.44
2019-05-29T15:18:44.579Z,34.56
2019-05-29T15:21:15.256Z,30.09
2019-05-29T15:23:44.961Z,27.82
2019-05-29T15:26:15.730Z,28.76
2019-05-29T15:28:45.433Z,27.63
2019-05-29T15:31:16.459Z,28.66
2019-05-29T15:33:46.221Z,30.46
2019-05-29T15:36:16.843Z,31.10
2019-05-29T15:38:46.517Z,33.94
2019-05-29T15:41:16.892Z,35.11
2019-05-29T15:43:49.413Z,33.79
2019-05-29T15:46:19.099Z,30.74
2019-05-29T15:48:48.602Z,27.86
2019-05-29T15:51:21.752Z,27.34
2019-05-29T15:53:50.276Z,29.06
2019-05-29T15:56:27.396Z,34.04
2019-05-29T15:58:51.128Z,36.85
2019-05-29T16:01:20.661Z,37.93
2019-05-29T16:03:51.672Z,37.15
2019-05-29T16:06:21.242Z,37.77
2019-05-29T16:08:50.912Z,39.99
2019-05-29T16:11:20.587Z,41.20
2019-05-29T16:13:50.043Z,41.22
2019-05-29T16:16:19.612Z,38.03
2019-05-29T16:18:49.720Z,38.09
2019-05-29T16:21:19.217Z,39.99
2019-05-29T16:23:48.806Z,42.23
2019-05-29T16:26:19.992Z,44.99
2019-05-29T16:28:49.963Z,46.65
2019-05-29T16:31:19.521Z,46.16
2019-05-29T16:33:49.007Z,46.72
2019-05-29T16:36:18.722Z,47.55
2019-05-29T16:38:48.237Z,48.73
2019-05-29T16:41:18.048Z,49.18
2019-05-29T16:43:47.531Z,49.95
2019-05-29T16:46:20.561Z,51.04
2019-05-29T16:48:48.369Z,51.87
2019-05-29T16:51:18.817Z,52.21
2019-05-29T16:53:48.328Z,52.72
2019-05-29T16:56:18.973Z,53.14
2019-05-29T16:58:48.531Z,53.12
2019-05-29T17:01:19.395Z,53.53
2019-05-29T17:03:48.998Z,52.38
2019-05-29T17:06:20.003Z,52.22
2019-05-29T17:08:49.691Z,52.77
2019-05-29T17:11:20.316Z,52.18
2019-05-29T17:13:49.937Z,52.88
2019-05-29T17:16:20.634Z,53.36
2019-05-29T17:18:50.944Z,53.47
2019-05-29T17:21:20.796Z,54.20
2019-05-29T17:23:50.566Z,54.10
2019-05-29T17:26:20.784Z,54.06
2019-05-29T17:28:50.721Z,53.73
2019-05-29T17:31:20.899Z,54.51
2019-05-29T17:33:50.538Z,54.69
2019-05-29T17:36:21.078Z,55.17
2019-05-29T17:38:50.776Z,55.36
2019-05-29T17:41:21.176Z,55.55
2019-05-29T17:43:50.714Z,55.11
2019-05-29T17:46:21.701Z,55.46
2019-05-29T17:48:51.321Z,55.11
2019-05-29T17:51:21.888Z,55.42
2019-05-29T17:53:51.497Z,55.58
2019-05-29T17:56:29.611Z,55.52
2019-05-29T17:58:52.178Z,56.88
2019-05-29T18:01:22.222Z,57.01
2019-05-29T18:03:51.798Z,57.23
2019-05-29T18:06:22.414Z,58.30
2019-05-29T18:08:52.084Z,58.94
2019-05-29T18:11:21.558Z,59.79
2019-05-29T18:13:51.222Z,60.00
2019-05-29T18:16:21.571Z,59.61
2019-05-29T18:18:51.121Z,59.31
2019-05-29T18:21:21.613Z,59.61
2019-05-29T18:23:53.363Z,60.00
2019-05-29T18:26:22.487Z,60.23
2019-05-29T18:28:51.968Z,60.08
2019-05-29T18:31:22.541Z,59.53
2019-05-29T18:33:57.226Z,60.56
2019-05-29T18:36:27.468Z,60.89
2019-05-29T18:38:57.104Z,61.28
2019-05-29T18:41:26.927Z,61.04
2019-05-29T18:43:56.452Z,60.94
2019-05-29T18:46:27.223Z,61.41
2019-05-29T18:48:56.797Z,62.00
2019-05-29T18:51:26.594Z,62.52
2019-05-29T18:53:56.171Z,63.03
2019-05-29T18:56:26.495Z,64.52
2019-05-29T18:58:55.960Z,64.52
2019-05-29T19:01:25.507Z,65.41
2019-05-29T19:03:54.998Z,68.96
2019-05-29T19:06:25.560Z,68.96
2019-05-29T19:08:55.091Z,69.69
2019-05-29T19:11:25.896Z,71.19
2019-05-29T19:13:55.537Z,71.19
2019-05-29T19:16:26.334Z,72.49
2019-05-29T19:18:55.997Z,73.38
2019-05-29T19:21:26.365Z,73.83
2019-05-29T19:23:56.056Z,74.59
2019-05-29T19:26:26.657Z,75.19
2019-05-29T19:28:56.062Z,75.55
2019-05-29T19:31:25.574Z,76.07
2019-05-29T19:33:55.160Z,76.56
2019-05-29T19:36:25.558Z,77.17
2019-05-29T19:38:55.259Z,77.38
2019-05-29T19:41:25.753Z,77.40
2019-05-29T19:43:55.263Z,78.24
2019-05-29T19:46:24.870Z,78.76
2019-05-29T19:48:54.374Z,79.12
2019-05-29T19:51:37.779Z,79.43
2019-05-29T19:54:09.502Z,79.51
2019-05-29T19:56:39.059Z,80.04
2019-05-29T19:59:08.551Z,79.79
2019-05-29T20:01:40.457Z,80.20
2019-05-29T20:04:09.534Z,80.41
2019-05-29T20:06:38.993Z,80.47
2019-05-29T20:09:08.644Z,80.97
2019-05-29T20:11:38.255Z,81.27
2019-05-29T20:14:07.857Z,81.19
2019-05-29T20:16:39.102Z,81.16
2019-05-29T20:19:08.579Z,81.46
2019-05-29T20:21:38.977Z,81.73
2019-05-29T20:24:08.523Z,81.53
2019-05-29T20:26:39.346Z,81.44
2019-05-29T20:29:08.951Z,81.84
2019-05-29T20:31:38.773Z,81.74
2019-05-29T20:34:08.321Z,81.87
2019-05-29T20:36:38.809Z,81.54
2019-05-29T20:39:09.188Z,82.04
2019-05-29T20:41:41.588Z,82.53
2019-05-29T20:44:09.983Z,82.74
2019-05-29T20:46:39.514Z,82.64
2019-05-29T20:49:09.080Z,82.86
2019-05-29T20:51:38.607Z,83.13
2019-05-29T20:54:08.057Z,82.57
2019-05-29T20:56:37.817Z,83.38
2019-05-29T20:59:07.378Z,83.07
2019-05-29T21:01:40.895Z,82.94
2019-05-29T21:04:08.232Z,82.69
2019-05-29T21:06:38.617Z,82.78
2019-05-29T21:09:08.367Z,82.01
2019-05-29T21:11:37.864Z,82.21
2019-05-29T21:14:07.379Z,82.53
2019-05-29T21:16:37.638Z,82.16
2019-05-29T21:19:07.181Z,83.03
2019-05-29T21:21:36.808Z,82.88
2019-05-29T21:24:06.633Z,83.38
2019-05-29T21:26:36.914Z,82.78
2019-05-29T21:29:06.563Z,82.97
2019-05-29T21:31:37.501Z,82.83
2019-05-29T21:34:07.790Z,82.83
2019-05-29T21:36:37.995Z,82.88
2019-05-29T21:39:09.816Z,83.46
2019-05-29T21:41:40.375Z,82.81
2019-05-29T21:44:09.944Z,83.26
2019-05-29T21:46:39.395Z,83.55
2019-05-29T21:49:08.876Z,83.64
2019-05-29T21:51:39.343Z,83.88
2019-05-29T21:54:08.815Z,84.40
2019-05-29T21:56:39.420Z,84.61
2019-05-29T21:59:08.912Z,84.24
2019-05-29T22:01:38.410Z,83.83
2019-05-29T22:04:07.960Z,83.85
2019-05-29T22:06:38.522Z,83.65
2019-05-29T22:09:13.545Z,83.95
2019-05-29T22:11:43.364Z,83.83
2019-05-29T22:14:12.949Z,83.75
2019-05-29T22:16:42.477Z,83.74
2019-05-29T22:19:12.051Z,84.42
2019-05-29T22:21:41.577Z,84.21
2019-05-29T22:24:11.097Z,84.21
2019-05-29T22:26:40.589Z,84.43
2019-05-29T22:29:17.947Z,83.41
2019-05-29T22:31:41.902Z,83.33
2019-05-29T22:34:11.443Z,83.08
2019-05-29T22:36:41.022Z,83.16
2019-05-29T22:39:10.517Z,83.44
2019-05-29T22:41:40.087Z,83.38
2019-05-29T22:44:09.562Z,83.82
2019-05-29T22:46:38.994Z,83.52
2019-05-29T22:49:08.465Z,83.50
2019-05-29T22:51:37.996Z,83.33
2019-05-29T22:54:07.662Z,83.35
2019-05-29T22:56:37.265Z,83.49
2019-05-29T22:59:06.854Z,83.84
2019-05-29T23:01:36.384Z,84.26
2019-05-29T23:04:05.972Z,84.17
2019-05-29T23:06:35.430Z,84.15
2019-05-29T23:09:05.521Z,84.17
2019-05-29T23:11:35.008Z,84.29
2019-05-29T23:14:04.456Z,84.10
2019-05-29T23:16:33.886Z,83.64
2019-05-29T23:19:03.367Z,83.97
2019-05-29T23:21:32.815Z,84.32
2019-05-29T23:24:02.314Z,84.75
2019-05-29T23:26:31.780Z,85.21
2019-05-29T23:29:01.345Z,84.14
2019-05-29T23:31:30.810Z,84.42
2019-05-29T23:34:01.152Z,84.59
2019-05-29T23:36:30.946Z,84.56
2019-05-29T23:39:01.393Z,84.91
2019-05-29T23:41:31.081Z,84.60
2019-05-29T23:44:01.609Z,84.51
2019-05-29T23:46:31.161Z,84.93
2019-05-29T23:49:01.836Z,84.56
2019-05-29T23:51:31.324Z,84.79
2019-05-29T23:54:01.846Z,84.62
2019-05-29T23:56:31.425Z,84.88
2019-05-29T23:59:01.920Z,85.20
